Time;durP1;ratioP1;P1;durP2;ratioP2;P2;SDS_P1;SDS_P2;PMS_P1;PMS_P2;Temp;Humidity;BMP_temperature;BMP_pressure;BME280_temperature;BME280_humidity;BME280_pressure;Samples;Min_cycle;Max_cycle;Signal;HPM_P1;HPM_P2
2022/09/04 00:01:45;;;;;;;22.35;13.45;;;;;;;;;;4977584;28;20034;-68
2022/09/04 00:04:18;;;;;;;19.65;13.93;;;;;;;;;;4977069;28;20058;-68
2022/09/04 00:06:55;;;;;;;21.73;14.77;;;;;;;;;;4977638;28;20041;-68
2022/09/04 00:09:30;;;;;;;21.48;14.88;;;;;;;;;;4975707;28;20027;-68
2022/09/04 00:12:03;;;;;;;21.35;15.00;;;;;;;;;;4974735;28;20262;-68
2022/09/04 00:14:38;;;;;;;17.85;13.90;;;;;;;;;;4978515;28;20077;-68
2022/09/04 00:17:14;;;;;;;20.73;14.85;;;;;;;;;;4976378;28;20101;-67
2022/09/04 00:19:42;;;;;;;23.40;14.65;;;;;;;;;;4977314;28;20100;-68
2022/09/04 00:22:15;;;;;;;19.33;14.30;;;;;;;;;;4956832;28;20514;-68
2022/09/04 00:24:42;;;;;;;18.35;14.55;;;;;;;;;;4978094;28;20054;-68
2022/09/04 00:27:23;;;;;;;21.33;14.85;;;;;;;;;;4976421;28;20039;-68
2022/09/04 00:29:49;;;;;;;26.53;15.40;;;;;;;;;;4969052;28;20102;-68
2022/09/04 00:32:17;;;;;;;21.65;15.80;;;;;;;;;;4975353;28;20196;-68
2022/09/04 00:34:52;;;;;;;21.27;14.50;;;;;;;;;;4976842;28;20034;-68
2022/09/04 00:37:21;;;;;;;21.65;16.58;;;;;;;;;;4956055;28;20069;-67
2022/09/04 00:39:54;;;;;;;22.95;16.30;;;;;;;;;;4971948;28;20100;-68
2022/09/04 00:42:36;;;;;;;21.75;16.80;;;;;;;;;;4974771;28;20058;-67
2022/09/04 00:45:03;;;;;;;19.52;15.05;;;;;;;;;;4978386;28;20041;-68
2022/09/04 00:47:50;;;;;;;22.40;16.50;;;;;;;;;;4974753;28;20030;-68
2022/09/04 00:50:19;;;;;;;16.48;14.38;;;;;;;;;;4972854;28;20039;-68
2022/09/04 00:52:53;;;;;;;20.70;17.15;;;;;;;;;;4973834;28;20046;-68
2022/09/04 00:55:25;;;;;;;20.25;15.95;;;;;;;;;;4973193;28;20035;-69
2022/09/04 00:57:57;;;;;;;19.77;15.68;;;;;;;;;;4974783;28;20034;-67
2022/09/04 01:00:25;;;;;;;20.38;16.85;;;;;;;;;;4979798;28;20114;-68
2022/09/04 01:03:03;;;;;;;18.35;16.05;;;;;;;;;;4974524;28;20019;-69
2022/09/04 01:05:30;;;;;;;19.73;16.80;;;;;;;;;;4961960;28;20227;-68
2022/09/04 01:08:06;;;;;;;22.77;16.60;;;;;;;;;;4961761;28;20471;-68
2022/09/04 01:10:40;;;;;;;19.83;17.15;;;;;;;;;;4977988;28;20045;-68
2022/09/04 01:13:10;;;;;;;20.92;16.67;;;;;;;;;;4974790;28;20034;-68
2022/09/04 01:15:40;;;;;;;22.10;16.92;;;;;;;;;;4976920;28;20058;-69
2022/09/04 01:18:22;;;;;;;21.50;19.02;;;;;;;;;;4977194;28;20035;-68
2022/09/04 01:21:13;;;;;;;20.33;17.98;;;;;;;;;;4973825;28;20541;-68
2022/09/04 01:23:57;;;;;;;24.42;18.92;;;;;;;;;;4975546;28;20122;-68
2022/09/04 01:26:32;;;;;;;24.48;18.17;;;;;;;;;;4982811;28;20538;-68
2022/09/04 01:29:06;;;;;;;29.67;19.90;;;;;;;;;;4989610;28;20145;-68
2022/09/04 01:31:35;;;;;;;26.90;19.20;;;;;;;;;;4984878;28;20019;-68
2022/09/04 01:34:22;;;;;;;24.35;18.48;;;;;;;;;;4980905;28;20054;-69
2022/09/04 01:36:57;;;;;;;31.05;19.60;;;;;;;;;;4985681;28;20404;-68
2022/09/04 01:39:24;;;;;;;25.83;19.33;;;;;;;;;;4987089;28;20055;-68
2022/09/04 01:41:58;;;;;;;24.60;20.05;;;;;;;;;;4983465;28;20034;-68
2022/09/04 01:44:25;;;;;;;22.98;20.58;;;;;;;;;;4983869;28;20034;-67
2022/09/04 01:46:57;;;;;;;24.23;20.17;;;;;;;;;;4987942;28;20066;-68
2022/09/04 01:49:37;;;;;;;25.63;20.70;;;;;;;;;;4987557;28;20097;-68
2022/09/04 01:52:20;;;;;;;24.25;19.60;;;;;;;;;;4986450;28;20033;-68
2022/09/04 01:54:58;;;;;;;25.23;20.95;;;;;;;;;;4984247;28;20048;-68
2022/09/04 01:57:27;;;;;;;26.02;20.73;;;;;;;;;;4986369;28;20034;-68
2022/09/04 02:00:02;;;;;;;26.60;20.60;;;;;;;;;;4988795;28;20047;-68
2022/09/04 02:02:33;;;;;;;25.15;20.92;;;;;;;;;;4978238;28;20504;-68
2022/09/04 02:05:08;;;;;;;34.17;21.77;;;;;;;;;;4990091;28;20491;-68
2022/09/04 02:07:46;;;;;;;27.58;21.83;;;;;;;;;;4986536;28;20129;-68
2022/09/04 02:10:30;;;;;;;28.17;22.63;;;;;;;;;;4985966;28;20018;-69
2022/09/04 02:13:16;;;;;;;34.05;24.63;;;;;;;;;;4974525;28;20600;-68
2022/09/04 02:16:02;;;;;;;28.55;23.10;;;;;;;;;;4983546;28;20053;-68
2022/09/04 02:18:31;;;;;;;27.95;22.83;;;;;;;;;;4947266;28;20045;-68
2022/09/04 02:21:22;;;;;;;28.05;23.02;;;;;;;;;;4987414;28;20068;-69
2022/09/04 02:23:54;;;;;;;35.42;25.38;;;;;;;;;;4975800;28;20085;-68
2022/09/04 02:26:27;;;;;;;32.38;25.10;;;;;;;;;;4969316;28;20034;-69
2022/09/04 02:29:02;;;;;;;36.85;24.15;;;;;;;;;;4988974;28;20025;-69
2022/09/04 02:31:32;;;;;;;27.63;24.08;;;;;;;;;;4982810;28;20645;-69
2022/09/04 02:34:01;;;;;;;31.33;25.35;;;;;;;;;;4965382;28;20354;-69
2022/09/04 02:36:49;;;;;;;31.02;25.13;;;;;;;;;;4987897;28;20088;-69
2022/09/04 02:39:15;;;;;;;32.58;26.83;;;;;;;;;;4987172;28;20034;-67
2022/09/04 02:41:49;;;;;;;33.20;26.20;;;;;;;;;;4981422;28;20034;-68
2022/09/04 02:44:21;;;;;;;31.58;24.65;;;;;;;;;;4988095;28;20045;-68
2022/09/04 02:46:47;;;;;;;34.60;25.80;;;;;;;;;;4985204;28;20026;-68
2022/09/04 02:49:32;;;;;;;30.13;26.10;;;;;;;;;;4989318;28;20053;-68
2022/09/04 02:52:01;;;;;;;42.15;26.77;;;;;;;;;;4983854;28;20092;-68
2022/09/04 02:54:30;;;;;;;30.40;25.25;;;;;;;;;;4985586;28;20040;-68
2022/09/04 02:57:19;;;;;;;36.17;26.02;;;;;;;;;;4987644;28;20364;-67
2022/09/04 03:00:24;;;;;;;32.67;26.13;;;;;;;;;;4985710;28;20038;-68
2022/09/04 03:03:19;;;;;;;36.13;26.45;;;;;;;;;;4985620;28;20054;-67
2022/09/04 03:05:50;;;;;;;33.05;26.35;;;;;;;;;;4963549;28;20046;-68
2022/09/04 03:08:33;;;;;;;35.75;26.45;;;;;;;;;;4970184;28;20072;-68
2022/09/04 03:11:03;;;;;;;37.10;26.15;;;;;;;;;;4986981;28;20047;-68
2022/09/04 03:13:34;;;;;;;36.95;27.30;;;;;;;;;;4988810;28;20088;-68
2022/09/04 03:16:09;;;;;;;32.17;25.48;;;;;;;;;;4981067;28;20034;-68
2022/09/04 03:18:54;;;;;;;33.60;26.33;;;;;;;;;;4962923;28;20034;-68
2022/09/04 03:21:29;;;;;;;30.05;25.80;;;;;;;;;;4987253;28;20030;-68
2022/09/04 03:23:58;;;;;;;37.25;26.85;;;;;;;;;;4984862;28;20030;-69
2022/09/04 03:26:28;;;;;;;38.00;27.50;;;;;;;;;;4985640;28;20041;-69
2022/09/04 03:29:13;;;;;;;33.50;25.52;;;;;;;;;;4988543;28;20101;-68
2022/09/04 03:31:41;;;;;;;31.92;25.33;;;;;;;;;;4981235;28;20118;-69
2022/09/04 03:34:07;;;;;;;38.85;26.60;;;;;;;;;;4985334;28;20073;-69
2022/09/04 03:36:33;;;;;;;30.48;24.90;;;;;;;;;;4983842;28;20289;-69
2022/09/04 03:39:05;;;;;;;34.03;25.75;;;;;;;;;;4975652;28;20041;-69
2022/09/04 03:41:37;;;;;;;37.22;26.95;;;;;;;;;;4978867;28;20490;-69
2022/09/04 03:44:17;;;;;;;33.22;26.77;;;;;;;;;;4979534;28;20039;-69
2022/09/04 03:46:52;;;;;;;42.47;28.13;;;;;;;;;;4981604;28;20084;-68
2022/09/04 03:49:41;;;;;;;38.28;29.50;;;;;;;;;;4977364;28;20050;-68
2022/09/04 03:52:13;;;;;;;34.80;26.92;;;;;;;;;;4975252;28;20514;-69
2022/09/04 03:54:46;;;;;;;38.80;29.35;;;;;;;;;;4979125;28;20109;-69
2022/09/04 03:57:18;;;;;;;39.95;28.45;;;;;;;;;;4958783;28;20030;-69
2022/09/04 03:59:58;;;;;;;39.85;29.55;;;;;;;;;;4972751;28;20574;-69
2022/09/04 04:02:43;;;;;;;37.83;30.90;;;;;;;;;;4961329;28;20470;-69
2022/09/04 04:05:27;;;;;;;39.22;28.33;;;;;;;;;;4974660;28;20041;-68
2022/09/04 04:08:16;;;;;;;40.33;30.55;;;;;;;;;;4976660;28;20026;-67
2022/09/04 04:10:44;;;;;;;40.85;31.80;;;;;;;;;;4956611;28;20089;-68
2022/09/04 04:13:11;;;;;;;48.20;33.33;;;;;;;;;;4981944;28;20129;-68
2022/09/04 04:15:40;;;;;;;44.75;32.38;;;;;;;;;;4976152;28;20023;-69
2022/09/04 04:18:19;;;;;;;42.30;33.92;;;;;;;;;;4976470;28;20622;-68
2022/09/04 04:20:56;;;;;;;46.70;33.85;;;;;;;;;;4977227;28;20504;-68
2022/09/04 04:23:38;;;;;;;49.03;33.55;;;;;;;;;;4977276;28;20038;-69
2022/09/04 04:26:07;;;;;;;49.25;33.42;;;;;;;;;;4974299;28;20042;-68
2022/09/04 04:28:34;;;;;;;47.55;33.47;;;;;;;;;;4972272;28;20495;-68
2022/09/04 04:31:09;;;;;;;43.33;33.40;;;;;;;;;;4977573;28;20046;-69
2022/09/04 04:33:42;;;;;;;44.05;33.08;;;;;;;;;;4976535;28;20125;-68
2022/09/04 04:36:12;;;;;;;49.08;37.72;;;;;;;;;;4976916;28;20042;-69
2022/09/04 04:38:56;;;;;;;55.80;38.17;;;;;;;;;;4959918;28;20031;-68
2022/09/04 04:42:04;;;;;;;56.30;40.72;;;;;;;;;;4969605;28;20548;-68
2022/09/04 04:47:43;;;;;;;57.47;41.90;;;;;;;;;;4977609;28;20081;-68
2022/09/04 04:50:12;;;;;;;60.88;42.15;;;;;;;;;;4972556;28;20074;-68
2022/09/04 04:52:41;;;;;;;61.65;43.25;;;;;;;;;;4956466;28;20337;-68
2022/09/04 04:55:13;;;;;;;54.22;41.63;;;;;;;;;;4978179;28;20475;-67
2022/09/04 04:57:52;;;;;;;61.53;41.53;;;;;;;;;;4978788;28;20033;-68
2022/09/04 05:00:21;;;;;;;60.55;42.83;;;;;;;;;;4973238;28;20038;-67
2022/09/04 05:03:00;;;;;;;61.78;44.53;;;;;;;;;;4976365;28;20034;-68
2022/09/04 05:05:45;;;;;;;65.07;43.97;;;;;;;;;;4977443;28;20109;-68
2022/09/04 05:08:30;;;;;;;60.60;43.28;;;;;;;;;;4975440;28;20031;-68
2022/09/04 05:11:00;;;;;;;62.65;44.30;;;;;;;;;;4974598;28;20527;-68
2022/09/04 05:13:32;;;;;;;59.85;43.45;;;;;;;;;;4974252;28;20065;-67
2022/09/04 05:16:12;;;;;;;54.67;40.03;;;;;;;;;;4975955;28;20554;-68
2022/09/04 05:18:38;;;;;;;55.63;41.80;;;;;;;;;;4978305;28;20048;-67
2022/09/04 05:21:12;;;;;;;63.60;42.75;;;;;;;;;;4978384;28;20491;-67
2022/09/04 05:23:41;;;;;;;56.85;42.13;;;;;;;;;;4974961;28;20514;-68
2022/09/04 05:26:16;;;;;;;51.65;40.60;;;;;;;;;;4977580;28;20061;-68
2022/09/04 05:28:42;;;;;;;52.75;37.47;;;;;;;;;;4975691;28;20117;-67
2022/09/04 05:31:13;;;;;;;49.13;36.25;;;;;;;;;;4977501;28;20026;-68
2022/09/04 05:34:11;;;;;;;49.22;37.25;;;;;;;;;;4975267;28;20050;-68
2022/09/04 05:36:50;;;;;;;41.40;33.72;;;;;;;;;;4926256;28;20035;-68
2022/09/04 05:39:16;;;;;;;41.55;32.38;;;;;;;;;;4956800;28;20038;-68
2022/09/04 05:42:01;;;;;;;38.70;31.83;;;;;;;;;;4969710;28;20030;-69
2022/09/04 05:44:52;;;;;;;40.15;32.33;;;;;;;;;;4972908;28;20488;-68
2022/09/04 05:47:37;;;;;;;40.58;31.35;;;;;;;;;;4975616;28;20038;-68
2022/09/04 05:50:18;;;;;;;36.90;30.35;;;;;;;;;;4970893;28;20504;-68
2022/09/04 05:52:43;;;;;;;;;;;;;;;;;;4973942;28;20026;-68
2022/09/04 05:55:20;;;;;;;42.70;31.05;;;;;;;;;;4975248;28;19914;-67
2022/09/04 05:57:58;;;;;;;41.85;32.25;;;;;;;;;;4974158;28;20046;-67
2022/09/04 06:00:27;;;;;;;37.58;31.58;;;;;;;;;;4971287;28;20031;-67
2022/09/04 06:03:11;;;;;;;37.85;31.23;;;;;;;;;;4973248;28;20511;-68
2022/09/04 06:05:40;;;;;;;38.88;31.15;;;;;;;;;;4977738;28;20031;-68
2022/09/04 06:08:12;;;;;;;40.65;30.45;;;;;;;;;;4975040;28;20026;-68
2022/09/04 06:10:41;;;;;;;39.47;30.42;;;;;;;;;;4976761;28;20041;-67
2022/09/04 06:13:16;;;;;;;44.55;31.85;;;;;;;;;;4956469;28;20120;-67
2022/09/04 06:15:44;;;;;;;48.90;31.83;;;;;;;;;;4973906;28;20045;-67
2022/09/04 06:18:28;;;;;;;40.65;32.13;;;;;;;;;;4974881;28;20038;-67
2022/09/04 06:20:57;;;;;;;40.25;31.35;;;;;;;;;;4972628;28;20274;-67
2022/09/04 06:23:23;;;;;;;41.05;29.63;;;;;;;;;;4974454;28;20030;-70
2022/09/04 06:26:03;;;;;;;30.98;26.95;;;;;;;;;;4972624;28;20117;-67
2022/09/04 06:28:47;;;;;;;32.67;26.55;;;;;;;;;;4976851;28;20034;-68
2022/09/04 06:31:13;;;;;;;31.15;25.73;;;;;;;;;;4954824;28;20022;-67
2022/09/04 06:33:42;;;;;;;31.55;26.40;;;;;;;;;;4971968;28;20109;-67
2022/09/04 06:36:32;;;;;;;31.48;26.02;;;;;;;;;;4970795;28;20081;-68
2022/09/04 06:39:06;;;;;;;29.73;26.52;;;;;;;;;;4982534;28;20042;-68
2022/09/04 06:41:37;;;;;;;33.90;26.70;;;;;;;;;;4988379;28;20068;-68
2022/09/04 06:44:02;;;;;;;;;;;;;;;;;;4990788;28;20507;-68
2022/09/04 06:46:41;;;;;;;31.33;25.02;;;;;;;;;;4986911;28;19917;-68
2022/09/04 06:49:16;;;;;;;32.72;26.52;;;;;;;;;;4986417;28;20073;-68
2022/09/04 06:51:51;;;;;;;33.88;28.10;;;;;;;;;;4967803;28;20377;-68
2022/09/04 06:54:36;;;;;;;33.30;25.92;;;;;;;;;;4968538;28;20125;-67
2022/09/04 06:57:02;;;;;;;31.92;26.17;;;;;;;;;;4984714;28;20494;-69
2022/09/04 06:59:28;;;;;;;31.27;26.48;;;;;;;;;;4969681;28;20447;-68
2022/09/04 07:01:59;;;;;;;31.67;26.92;;;;;;;;;;4984034;28;20743;-69
2022/09/04 07:04:48;;;;;;;29.20;25.92;;;;;;;;;;4983901;28;20536;-67
2022/09/04 07:07:20;;;;;;;33.17;26.55;;;;;;;;;;4985012;28;20542;-67
2022/09/04 07:09:48;;;;;;;31.77;26.88;;;;;;;;;;4980862;28;20022;-67
2022/09/04 07:12:53;;;;;;;33.10;26.35;;;;;;;;;;4979548;28;20097;-67
2022/09/04 07:15:20;;;;;;;35.10;27.05;;;;;;;;;;4905608;29;20920;-68
2022/09/04 07:18:04;;;;;;;28.58;25.42;;;;;;;;;;4910068;29;20583;-68
2022/09/04 07:20:33;;;;;;;27.50;24.48;;;;;;;;;;4943245;28;20034;-68
2022/09/04 07:23:05;;;;;;;29.38;23.95;;;;;;;;;;4974439;28;20106;-68
2022/09/04 07:25:31;;;;;;;26.80;23.27;;;;;;;;;;4981603;28;20025;-69
2022/09/04 07:28:10;;;;;;;32.70;25.10;;;;;;;;;;4992784;28;20027;-68
2022/09/04 07:30:56;;;;;;;32.05;25.02;;;;;;;;;;4993902;28;20121;-68
2022/09/04 07:33:36;;;;;;;28.02;24.08;;;;;;;;;;4992065;28;20022;-68
2022/09/04 07:36:13;;;;;;;37.60;25.00;;;;;;;;;;4988908;28;20198;-68
2022/09/04 07:38:45;;;;;;;29.40;25.27;;;;;;;;;;4986558;28;20089;-68
2022/09/04 07:41:21;;;;;;;27.65;24.30;;;;;;;;;;4983551;28;20575;-68
2022/09/04 07:43:56;;;;;;;30.05;24.50;;;;;;;;;;4987936;28;20108;-68
2022/09/04 07:46:39;;;;;;;31.60;26.02;;;;;;;;;;4992623;28;20034;-68
2022/09/04 07:49:10;;;;;;;32.80;25.40;;;;;;;;;;4979132;28;20070;-69
2022/09/04 07:51:52;;;;;;;35.97;25.90;;;;;;;;;;4975720;28;20118;-70
2022/09/04 07:54:24;;;;;;;27.83;24.92;;;;;;;;;;4976556;28;20523;-69
2022/09/04 07:56:52;;;;;;;31.15;25.35;;;;;;;;;;4973908;28;20050;-68
2022/09/04 07:59:37;;;;;;;28.27;24.90;;;;;;;;;;4973492;28;20061;-68
2022/09/04 08:02:21;;;;;;;28.30;23.52;;;;;;;;;;4974951;28;20046;-68
2022/09/04 08:04:57;;;;;;;24.83;22.13;;;;;;;;;;4961536;28;20101;-68
2022/09/04 08:07:32;;;;;;;24.00;21.17;;;;;;;;;;4978396;28;20041;-68
2022/09/04 08:10:12;;;;;;;24.85;21.63;;;;;;;;;;4976408;28;20546;-68
2022/09/04 08:12:57;;;;;;;26.50;23.02;;;;;;;;;;4959403;28;20031;-68
2022/09/04 08:15:29;;;;;;;25.48;21.55;;;;;;;;;;4961177;28;20100;-68
2022/09/04 08:17:55;;;;;;;26.05;21.95;;;;;;;;;;4969557;28;20029;-68
2022/09/04 08:20:24;;;;;;;27.48;22.15;;;;;;;;;;4972285;28;20395;-68
2022/09/04 08:22:53;;;;;;;26.33;21.67;;;;;;;;;;4975364;28;20101;-67
2022/09/04 08:25:25;;;;;;;26.38;21.90;;;;;;;;;;4981854;28;20026;-67
2022/09/04 08:28:09;;;;;;;25.83;22.58;;;;;;;;;;4981398;28;20027;-68
2022/09/04 08:31:03;;;;;;;28.88;21.75;;;;;;;;;;4957723;28;20566;-68
2022/09/04 08:33:29;;;;;;;24.45;20.92;;;;;;;;;;4958193;28;20089;-67
2022/09/04 08:36:01;;;;;;;24.75;21.38;;;;;;;;;;4972188;28;20058;-67
2022/09/04 08:38:33;;;;;;;23.55;20.67;;;;;;;;;;4977703;28;20031;-67
2022/09/04 08:41:12;;;;;;;26.70;21.05;;;;;;;;;;4974811;28;20034;-67
2022/09/04 08:43:57;;;;;;;25.33;20.70;;;;;;;;;;4974252;28;20034;-68
2022/09/04 08:46:44;;;;;;;25.13;20.77;;;;;;;;;;4980255;28;20031;-67
2022/09/04 08:49:29;;;;;;;22.88;19.75;;;;;;;;;;4979333;28;20062;-67
2022/09/04 08:52:13;;;;;;;28.65;20.67;;;;;;;;;;4974422;28;20110;-67
2022/09/04 08:54:39;;;;;;;26.73;21.23;;;;;;;;;;4977443;28;20039;-67
2022/09/04 08:57:24;;;;;;;22.70;19.85;;;;;;;;;;4976316;28;20041;-67
2022/09/04 08:59:54;;;;;;;27.02;22.23;;;;;;;;;;4975468;28;20038;-68
2022/09/04 09:02:44;;;;;;;23.98;20.92;;;;;;;;;;4974557;28;20027;-67
2022/09/04 09:05:30;;;;;;;27.90;22.50;;;;;;;;;;4975747;28;20035;-68
2022/09/04 09:07:59;;;;;;;29.63;22.25;;;;;;;;;;4975539;28;20125;-68
2022/09/04 09:10:48;;;;;;;27.70;22.35;;;;;;;;;;4955516;28;20034;-69
2022/09/04 09:13:14;;;;;;;26.98;23.23;;;;;;;;;;4961216;28;20419;-68
2022/09/04 09:15:59;;;;;;;26.60;22.17;;;;;;;;;;4972981;28;20455;-68
2022/09/04 09:18:34;;;;;;;29.77;21.55;;;;;;;;;;4974779;28;20039;-68
2022/09/04 09:21:06;;;;;;;29.65;21.05;;;;;;;;;;4977313;28;20458;-68
2022/09/04 09:24:04;;;;;;;26.92;20.60;;;;;;;;;;4956715;28;20022;-69
2022/09/04 09:26:33;;;;;;;27.45;20.20;;;;;;;;;;4928754;28;20049;-68
2022/09/04 09:28:59;;;;;;;40.83;20.35;;;;;;;;;;4976596;28;20030;-69
2022/09/04 09:31:43;;;;;;;22.77;19.70;;;;;;;;;;4971135;28;20061;-69
2022/09/04 09:34:10;;;;;;;25.45;19.42;;;;;;;;;;4975554;28;20062;-69
2022/09/04 09:36:43;;;;;;;21.75;19.33;;;;;;;;;;4976785;28;20113;-69
2022/09/04 09:39:27;;;;;;;26.70;18.40;;;;;;;;;;4974082;28;20104;-69
2022/09/04 09:41:58;;;;;;;26.15;18.70;;;;;;;;;;4975732;28;20026;-69
2022/09/04 09:44:43;;;;;;;21.77;18.45;;;;;;;;;;4977667;28;20023;-69
2022/09/04 09:47:20;;;;;;;25.00;18.17;;;;;;;;;;4973229;28;20037;-70
2022/09/04 09:50:01;;;;;;;25.25;18.67;;;;;;;;;;4974679;28;20081;-69
2022/09/04 09:52:45;;;;;;;19.05;15.43;;;;;;;;;;4975492;28;20019;-69
2022/09/04 09:55:20;;;;;;;19.73;16.27;;;;;;;;;;4956663;28;20938;-68
2022/09/04 09:58:05;;;;;;;21.73;16.02;;;;;;;;;;4977048;28;20038;-67
2022/09/04 10:00:57;;;;;;;17.33;15.50;;;;;;;;;;4976066;28;20034;-69
2022/09/04 10:03:33;;;;;;;19.27;12.90;;;;;;;;;;4956402;28;20081;-68
2022/09/04 10:06:18;;;;;;;18.38;13.52;;;;;;;;;;4975069;28;20497;-68
2022/09/04 10:08:55;;;;;;;17.70;13.65;;;;;;;;;;4972963;28;20527;-69
2022/09/04 10:11:22;;;;;;;15.63;11.73;;;;;;;;;;4973124;28;20564;-69
2022/09/04 10:13:51;;;;;;;18.83;13.68;;;;;;;;;;4974434;28;20034;-68
2022/09/04 10:16:36;;;;;;;15.65;13.20;;;;;;;;;;4963428;28;20526;-69
2022/09/04 10:19:27;;;;;;;20.00;12.63;;;;;;;;;;4975990;28;20035;-68
2022/09/04 10:22:06;;;;;;;15.70;11.45;;;;;;;;;;4972146;28;20129;-68
2022/09/04 10:25:08;;;;;;;14.48;11.32;;;;;;;;;;4974584;28;20081;-68
2022/09/04 10:27:52;;;;;;;15.07;11.00;;;;;;;;;;4901375;29;20059;-69
2022/09/04 10:30:22;;;;;;;14.00;10.57;;;;;;;;;;4970664;28;20088;-69
2022/09/04 10:32:50;;;;;;;15.95;12.10;;;;;;;;;;4972671;28;20053;-68
2022/09/04 10:35:27;;;;;;;17.80;11.20;;;;;;;;;;4975687;28;20034;-68
2022/09/04 10:37:55;;;;;;;13.85;11.18;;;;;;;;;;4972391;28;20104;-69
2022/09/04 10:40:42;;;;;;;16.33;13.30;;;;;;;;;;4971595;28;20034;-69
2022/09/04 10:43:27;;;;;;;20.13;13.15;;;;;;;;;;4975445;28;20041;-69
2022/09/04 10:46:10;;;;;;;16.85;11.48;;;;;;;;;;4959954;28;20117;-68
2022/09/04 10:48:45;;;;;;;13.60;10.50;;;;;;;;;;4970145;28;20073;-68
2022/09/04 10:51:11;;;;;;;25.40;9.65;;;;;;;;;;4979995;28;20031;-68
2022/09/04 10:53:43;;;;;;;15.20;9.23;;;;;;;;;;4986420;28;20502;-68
2022/09/04 10:56:20;;;;;;;12.80;9.10;;;;;;;;;;4981691;28;20026;-68
2022/09/04 10:59:02;;;;;;;13.38;8.90;;;;;;;;;;4976692;28;20049;-69
2022/09/04 11:01:37;;;;;;;11.75;7.53;;;;;;;;;;4982428;28;20026;-68
2022/09/04 11:04:18;;;;;;;13.38;7.65;;;;;;;;;;4976942;28;20030;-68
2022/09/04 11:06:52;;;;;;;9.48;6.60;;;;;;;;;;4981544;28;20034;-68
2022/09/04 11:09:31;;;;;;;11.23;7.60;;;;;;;;;;4980702;28;20030;-68
2022/09/04 11:12:11;;;;;;;10.75;6.93;;;;;;;;;;4967577;28;20508;-68
2022/09/04 11:14:56;;;;;;;8.27;6.20;;;;;;;;;;4979867;28;20459;-68
2022/09/04 11:17:40;;;;;;;7.63;5.90;;;;;;;;;;4979118;28;20046;-69
2022/09/04 11:20:19;;;;;;;9.95;6.90;;;;;;;;;;4984857;28;20123;-68
2022/09/04 11:23:11;;;;;;;10.27;5.65;;;;;;;;;;4986307;28;20018;-69
2022/09/04 11:25:41;;;;;;;8.63;5.07;;;;;;;;;;4984086;28;20061;-68
2022/09/04 11:28:11;;;;;;;7.15;4.43;;;;;;;;;;4982333;28;20023;-69
2022/09/04 11:30:47;;;;;;;9.20;5.10;;;;;;;;;;4982863;28;20026;-69
2022/09/04 11:33:35;;;;;;;8.93;4.72;;;;;;;;;;4984259;28;20030;-68
2022/09/04 11:36:20;;;;;;;10.50;5.15;;;;;;;;;;4982204;28;20026;-68
2022/09/04 11:38:49;;;;;;;10.93;5.43;;;;;;;;;;4982180;28;20029;-69
2022/09/04 11:41:33;;;;;;;8.85;4.85;;;;;;;;;;4983108;28;20034;-69
2022/09/04 11:44:18;;;;;;;9.60;5.55;;;;;;;;;;4982914;28;20322;-69
2022/09/04 11:47:02;;;;;;;8.80;4.60;;;;;;;;;;4981164;28;20052;-69
2022/09/04 11:49:30;;;;;;;5.47;3.17;;;;;;;;;;4981982;28;20068;-69
2022/09/04 11:51:59;;;;;;;6.55;3.22;;;;;;;;;;4982381;28;21258;-69
2022/09/04 11:54:25;;;;;;;9.05;3.20;;;;;;;;;;4986867;28;20026;-68
2022/09/04 11:57:12;;;;;;;5.45;2.83;;;;;;;;;;4980650;28;20677;-69
2022/09/04 11:59:38;;;;;;;7.18;3.53;;;;;;;;;;4976749;28;20042;-69
2022/09/04 12:02:17;;;;;;;8.68;3.60;;;;;;;;;;4979674;28;20523;-69
2022/09/04 12:04:48;;;;;;;12.10;3.17;;;;;;;;;;4975856;28;20031;-68
2022/09/04 12:07:33;;;;;;;13.07;2.70;;;;;;;;;;4975503;28;20065;-69
2022/09/04 12:09:59;;;;;;;8.45;3.22;;;;;;;;;;4978307;28;20034;-70
2022/09/04 12:12:44;;;;;;;6.80;2.58;;;;;;;;;;4976219;28;20034;-69
2022/09/04 12:15:22;;;;;;;7.30;2.92;;;;;;;;;;4977320;28;20122;-69
2022/09/04 12:17:57;;;;;;;7.25;3.40;;;;;;;;;;4974782;28;20035;-69
2022/09/04 12:20:30;;;;;;;10.07;3.33;;;;;;;;;;4978829;28;20149;-69
2022/09/04 12:23:02;;;;;;;7.57;3.30;;;;;;;;;;4976382;28;20050;-68
2022/09/04 12:25:47;;;;;;;7.40;3.97;;;;;;;;;;4975444;28;20037;-68
2022/09/04 12:28:14;;;;;;;6.60;3.45;;;;;;;;;;4973248;28;20168;-68
2022/09/04 12:30:53;;;;;;;3.75;2.80;;;;;;;;;;4976687;28;20516;-68
2022/09/04 12:33:43;;;;;;;5.53;3.45;;;;;;;;;;4975147;28;20034;-69
2022/09/04 12:36:33;;;;;;;5.35;2.92;;;;;;;;;;4976396;28;20048;-69
2022/09/04 12:39:00;;;;;;;;;;;;;;;;;;4968425;28;20031;-69
2022/09/04 12:41:26;;;;;;;5.25;3.28;;;;;;;;;;4973863;28;19914;-69
2022/09/04 12:44:00;;;;;;;6.95;2.65;;;;;;;;;;4976315;28;20044;-69
2022/09/04 12:46:51;;;;;;;7.38;3.10;;;;;;;;;;4974467;28;20026;-68
2022/09/04 12:49:36;;;;;;;7.35;3.35;;;;;;;;;;4971827;28;20065;-69
2022/09/04 12:52:28;;;;;;;5.45;3.20;;;;;;;;;;4975938;28;20510;-68
2022/09/04 12:54:54;;;;;;;7.10;3.00;;;;;;;;;;4937931;28;20364;-68
2022/09/04 12:57:36;;;;;;;6.07;3.10;;;;;;;;;;4975952;28;20031;-68
2022/09/04 13:00:14;;;;;;;4.53;2.97;;;;;;;;;;4984823;28;20034;-69
2022/09/04 13:02:58;;;;;;;5.15;2.97;;;;;;;;;;4984767;28;20122;-68
2022/09/04 13:05:37;;;;;;;8.05;3.10;;;;;;;;;;4968186;28;20129;-69
2022/09/04 13:08:10;;;;;;;8.93;3.17;;;;;;;;;;4982450;28;20113;-68
2022/09/04 13:11:15;;;;;;;6.28;3.17;;;;;;;;;;4983978;28;20041;-68
2022/09/04 13:13:41;;;;;;;5.30;2.63;;;;;;;;;;4889080;29;20029;-68
2022/09/04 13:16:30;;;;;;;6.68;2.72;;;;;;;;;;4887028;29;20039;-68
2022/09/04 13:19:02;;;;;;;3.70;2.40;;;;;;;;;;4948438;28;20065;-67
2022/09/04 13:21:37;;;;;;;4.15;2.20;;;;;;;;;;4983848;28;20111;-67
2022/09/04 13:24:03;;;;;;;3.97;2.25;;;;;;;;;;4965684;28;20613;-68
2022/09/04 13:26:50;;;;;;;6.63;2.83;;;;;;;;;;4982406;28;20108;-68
2022/09/04 13:29:35;;;;;;;4.18;2.78;;;;;;;;;;4984816;28;20033;-69
2022/09/04 13:32:13;;;;;;;9.63;2.85;;;;;;;;;;4986286;28;20018;-69
2022/09/04 13:34:43;;;;;;;5.78;2.70;;;;;;;;;;4985092;28;20030;-68
2022/09/04 13:37:24;;;;;;;5.15;2.58;;;;;;;;;;4981530;28;20057;-69
2022/09/04 13:39:53;;;;;;;5.70;3.03;;;;;;;;;;4980661;28;20515;-69
2022/09/04 13:42:32;;;;;;;5.82;2.80;;;;;;;;;;4983893;28;20034;-69
2022/09/04 13:45:33;;;;;;;4.95;2.97;;;;;;;;;;4982999;28;20042;-68
2022/09/04 13:48:14;;;;;;;6.38;3.30;;;;;;;;;;4889272;29;20044;-68
2022/09/04 13:50:46;;;;;;;5.70;3.63;;;;;;;;;;4977871;28;20125;-69
2022/09/04 13:53:16;;;;;;;6.07;3.17;;;;;;;;;;4987777;28;20278;-68
2022/09/04 13:55:47;;;;;;;7.63;3.20;;;;;;;;;;4982585;28;20030;-68
2022/09/04 13:58:18;;;;;;;11.55;4.18;;;;;;;;;;4974860;28;20041;-68
2022/09/04 14:00:56;;;;;;;8.40;4.00;;;;;;;;;;4975906;28;20034;-69
2022/09/04 14:03:37;;;;;;;5.97;3.75;;;;;;;;;;4954208;28;20066;-69
2022/09/04 14:06:05;;;;;;;7.38;4.22;;;;;;;;;;4971973;28;20038;-68
2022/09/04 14:08:33;;;;;;;10.18;3.00;;;;;;;;;;4962498;28;20034;-68
2022/09/04 14:10:59;;;;;;;4.97;2.80;;;;;;;;;;4978797;28;20645;-70
2022/09/04 14:13:35;;;;;;;6.22;2.90;;;;;;;;;;4973167;28;20455;-68
2022/09/04 14:16:03;;;;;;;4.97;3.15;;;;;;;;;;4973168;28;20065;-69
2022/09/04 14:18:28;;;;;;;6.28;2.83;;;;;;;;;;4976715;28;20066;-69
2022/09/04 14:20:59;;;;;;;3.97;2.80;;;;;;;;;;4973863;28;20038;-68
2022/09/04 14:23:47;;;;;;;8.18;3.20;;;;;;;;;;4972052;28;20435;-68
2022/09/04 14:26:32;;;;;;;9.93;3.22;;;;;;;;;;4975822;28;20031;-68
2022/09/04 14:29:18;;;;;;;6.68;2.90;;;;;;;;;;4958207;28;20476;-70
2022/09/04 14:31:56;;;;;;;6.68;2.80;;;;;;;;;;4973526;28;20031;-69
2022/09/04 14:34:37;;;;;;;6.88;3.10;;;;;;;;;;4972604;28;20037;-68
2022/09/04 14:37:14;;;;;;;8.05;2.90;;;;;;;;;;4957914;28;20042;-69
2022/09/04 14:39:56;;;;;;;7.10;3.00;;;;;;;;;;4975515;28;20050;-69
2022/09/04 14:42:26;;;;;;;4.35;2.97;;;;;;;;;;4978436;28;20030;-69
2022/09/04 14:45:01;;;;;;;4.20;2.75;;;;;;;;;;4974395;28;20045;-67
2022/09/04 14:47:34;;;;;;;8.38;2.88;;;;;;;;;;4973060;28;20039;-68
2022/09/04 14:50:00;;;;;;;5.10;2.97;;;;;;;;;;4971737;28;20065;-68
2022/09/04 14:52:38;;;;;;;4.85;2.78;;;;;;;;;;4954706;28;20039;-68
2022/09/04 14:55:05;;;;;;;6.82;2.80;;;;;;;;;;4970873;28;20038;-69
2022/09/04 14:57:38;;;;;;;7.28;3.10;;;;;;;;;;4973644;28;20117;-68
2022/09/04 15:00:07;;;;;;;7.90;2.75;;;;;;;;;;4974706;28;20044;-70
2022/09/04 15:02:37;;;;;;;4.13;2.87;;;;;;;;;;4981624;28;20038;-69
2022/09/04 15:05:14;;;;;;;5.80;2.97;;;;;;;;;;4978989;28;20018;-69
2022/09/04 15:07:43;;;;;;;4.28;2.97;;;;;;;;;;4955310;28;20165;-69
2022/09/04 15:10:24;;;;;;;6.70;3.05;;;;;;;;;;4967626;28;20101;-69
2022/09/04 15:13:09;;;;;;;4.28;2.70;;;;;;;;;;4974818;28;20378;-68
2022/09/04 15:15:38;;;;;;;7.82;3.13;;;;;;;;;;4972331;28;20575;-69
2022/09/04 15:18:07;;;;;;;7.32;2.88;;;;;;;;;;4952822;28;20066;-69
2022/09/04 15:20:34;;;;;;;5.97;3.45;;;;;;;;;;4976202;28;20062;-69
2022/09/04 15:23:06;;;;;;;8.07;2.83;;;;;;;;;;4981138;28;20034;-69